sensor_id;sensor_type;location;lat;lon;timestamp;temperature;humidity
780;DHT22;373;49.342;8.146;2023-05-19T00:01:27;12.80;99.90
780;DHT22;373;49.342;8.146;2023-05-19T00:03:56;12.60;99.90
780;DHT22;373;49.342;8.146;2023-05-19T00:06:24;12.60;99.90
780;DHT22;373;49.342;8.146;2023-05-19T00:08:56;12.50;1.00
780;DHT22;373;49.342;8.146;2023-05-19T00:11:24;12.60;1.00
780;DHT22;373;49.342;8.146;2023-05-19T00:13:52;12.50;1.00
780;DHT22;373;49.342;8.146;2023-05-19T00:16:20;12.50;1.00
780;DHT22;373;49.342;8.146;2023-05-19T00:18:47;12.60;1.00
780;DHT22;373;49.342;8.146;2023-05-19T00:21:15;12.50;1.00
780;DHT22;373;49.342;8.146;2023-05-19T00:23:42;12.50;1.00
780;DHT22;373;49.342;8.146;2023-05-19T00:26:11;12.20;1.00
780;DHT22;373;49.342;8.146;2023-05-19T00:28:44;12.10;1.00
780;DHT22;373;49.342;8.146;2023-05-19T00:31:11;11.90;1.00
780;DHT22;373;49.342;8.146;2023-05-19T00:33:38;11.80;10.90
780;DHT22;373;49.342;8.146;2023-05-19T00:36:05;11.80;1.00
780;DHT22;373;49.342;8.146;2023-05-19T00:38:36;11.80;27.10
780;DHT22;373;49.342;8.146;2023-05-19T00:41:05;11.60;99.90
780;DHT22;373;49.342;8.146;2023-05-19T00:43:33;11.50;99.90
780;DHT22;373;49.342;8.146;2023-05-19T00:46:01;11.40;99.90
780;DHT22;373;49.342;8.146;2023-05-19T00:48:28;11.30;1.00
780;DHT22;373;49.342;8.146;2023-05-19T00:50:56;11.20;1.00
780;DHT22;373;49.342;8.146;2023-05-19T00:53:27;11.30;1.00
780;DHT22;373;49.342;8.146;2023-05-19T00:55:55;11.20;1.00
780;DHT22;373;49.342;8.146;2023-05-19T00:58:24;11.30;1.00
780;DHT22;373;49.342;8.146;2023-05-19T01:00:56;11.10;1.00
780;DHT22;373;49.342;8.146;2023-05-19T01:03:29;11.10;99.90
780;DHT22;373;49.342;8.146;2023-05-19T01:05:57;11.20;1.00
780;DHT22;373;49.342;8.146;2023-05-19T01:08:26;11.10;17.00
780;DHT22;373;49.342;8.146;2023-05-19T01:10:56;11.00;99.90
780;DHT22;373;49.342;8.146;2023-05-19T01:13:24;10.80;1.00
780;DHT22;373;49.342;8.146;2023-05-19T01:15:59;10.80;1.00
780;DHT22;373;49.342;8.146;2023-05-19T01:18:36;10.80;1.00
780;DHT22;373;49.342;8.146;2023-05-19T01:24:14;11.00;99.90
780;DHT22;373;49.342;8.146;2023-05-19T01:27:04;11.10;71.20
780;DHT22;373;49.342;8.146;2023-05-19T01:29:42;11.10;1.00
780;DHT22;373;49.342;8.146;2023-05-19T01:32:17;11.10;1.00
780;DHT22;373;49.342;8.146;2023-05-19T01:34:45;11.00;1.00
780;DHT22;373;49.342;8.146;2023-05-19T01:37:15;10.90;1.00
780;DHT22;373;49.342;8.146;2023-05-19T01:39:45;10.90;99.90
780;DHT22;373;49.342;8.146;2023-05-19T01:42:14;10.90;22.80
780;DHT22;373;49.342;8.146;2023-05-19T01:44:45;11.00;1.00
780;DHT22;373;49.342;8.146;2023-05-19T01:47:14;10.90;1.00
780;DHT22;373;49.342;8.146;2023-05-19T01:49:42;10.70;99.90
780;DHT22;373;49.342;8.146;2023-05-19T01:52:09;10.50;1.00
780;DHT22;373;49.342;8.146;2023-05-19T01:54:36;10.40;99.90
780;DHT22;373;49.342;8.146;2023-05-19T01:57:23;10.40;99.90
780;DHT22;373;49.342;8.146;2023-05-19T01:59:58;10.20;99.90
780;DHT22;373;49.342;8.146;2023-05-19T02:02:46;10.10;1.00
780;DHT22;373;49.342;8.146;2023-05-19T02:05:22;10.00;99.90
780;DHT22;373;49.342;8.146;2023-05-19T02:08:07;10.00;99.90
780;DHT22;373;49.342;8.146;2023-05-19T02:10:41;9.90;99.90
780;DHT22;373;49.342;8.146;2023-05-19T02:13:22;10.10;99.90
780;DHT22;373;49.342;8.146;2023-05-19T02:16:02;9.90;99.90
780;DHT22;373;49.342;8.146;2023-05-19T02:18:32;9.80;1.00
780;DHT22;373;49.342;8.146;2023-05-19T02:21:01;9.70;99.90
780;DHT22;373;49.342;8.146;2023-05-19T02:23:31;9.70;99.90
780;DHT22;373;49.342;8.146;2023-05-19T02:26:07;9.60;1.00
780;DHT22;373;49.342;8.146;2023-05-19T02:28:41;9.60;1.00
780;DHT22;373;49.342;8.146;2023-05-19T02:31:08;9.70;99.90
780;DHT22;373;49.342;8.146;2023-05-19T02:33:46;9.70;99.90
780;DHT22;373;49.342;8.146;2023-05-19T02:36:17;9.70;99.90
780;DHT22;373;49.342;8.146;2023-05-19T02:38:48;9.80;99.90
780;DHT22;373;49.342;8.146;2023-05-19T02:41:30;9.80;99.90
780;DHT22;373;49.342;8.146;2023-05-19T02:43:59;9.60;1.00
780;DHT22;373;49.342;8.146;2023-05-19T02:46:26;9.70;99.90
780;DHT22;373;49.342;8.146;2023-05-19T02:48:55;9.50;1.00
780;DHT22;373;49.342;8.146;2023-05-19T02:51:24;9.50;99.90
780;DHT22;373;49.342;8.146;2023-05-19T02:54:02;9.40;1.00
780;DHT22;373;49.342;8.146;2023-05-19T02:57:02;9.50;99.90
780;DHT22;373;49.342;8.146;2023-05-19T02:59:32;9.50;1.00
780;DHT22;373;49.342;8.146;2023-05-19T03:02:04;9.40;23.50
780;DHT22;373;49.342;8.146;2023-05-19T03:04:45;9.60;1.00
780;DHT22;373;49.342;8.146;2023-05-19T03:07:25;9.80;1.00
780;DHT22;373;49.342;8.146;2023-05-19T03:09:55;9.70;11.40
780;DHT22;373;49.342;8.146;2023-05-19T03:12:37;9.60;12.80
780;DHT22;373;49.342;8.146;2023-05-19T03:15:12;9.60;1.00
780;DHT22;373;49.342;8.146;2023-05-19T03:17:44;9.60;99.90
780;DHT22;373;49.342;8.146;2023-05-19T03:20:16;9.30;8.70
780;DHT22;373;49.342;8.146;2023-05-19T03:22:56;9.30;95.60
780;DHT22;373;49.342;8.146;2023-05-19T03:25:37;9.40;99.90
780;DHT22;373;49.342;8.146;2023-05-19T03:28:19;9.10;1.00
780;DHT22;373;49.342;8.146;2023-05-19T03:30:47;9.30;99.90
780;DHT22;373;49.342;8.146;2023-05-19T03:33:57;9.30;99.90
780;DHT22;373;49.342;8.146;2023-05-19T03:36:36;9.20;1.00
780;DHT22;373;49.342;8.146;2023-05-19T03:39:22;9.40;99.90
780;DHT22;373;49.342;8.146;2023-05-19T03:42:34;9.10;1.00
780;DHT22;373;49.342;8.146;2023-05-19T03:45:04;9.00;47.90
780;DHT22;373;49.342;8.146;2023-05-19T03:47:37;9.00;99.90
780;DHT22;373;49.342;8.146;2023-05-19T03:50:43;8.90;95.50
780;DHT22;373;49.342;8.146;2023-05-19T03:53:47;9.10;99.90
780;DHT22;373;49.342;8.146;2023-05-19T03:56:42;9.10;1.00
780;DHT22;373;49.342;8.146;2023-05-19T03:59:12;9.50;12.00
780;DHT22;373;49.342;8.146;2023-05-19T04:01:50;9.70;99.90
780;DHT22;373;49.342;8.146;2023-05-19T04:07:31;9.40;99.90
780;DHT22;373;49.342;8.146;2023-05-19T04:10:11;9.30;1.00
780;DHT22;373;49.342;8.146;2023-05-19T04:12:43;9.30;56.00
780;DHT22;373;49.342;8.146;2023-05-19T04:15:44;9.10;99.90
780;DHT22;373;49.342;8.146;2023-05-19T04:18:23;9.10;1.00
780;DHT22;373;49.342;8.146;2023-05-19T04:20:59;8.90;1.00
780;DHT22;373;49.342;8.146;2023-05-19T04:23:29;9.00;99.90
780;DHT22;373;49.342;8.146;2023-05-19T04:26:05;9.10;47.40
780;DHT22;373;49.342;8.146;2023-05-19T04:28:48;9.20;1.00
780;DHT22;373;49.342;8.146;2023-05-19T04:31:19;9.30;99.90
780;DHT22;373;49.342;8.146;2023-05-19T04:34:00;9.30;99.90
780;DHT22;373;49.342;8.146;2023-05-19T04:36:33;9.40;1.00
780;DHT22;373;49.342;8.146;2023-05-19T04:39:11;9.30;99.90
780;DHT22;373;49.342;8.146;2023-05-19T04:41:53;9.40;1.00
780;DHT22;373;49.342;8.146;2023-05-19T04:44:32;9.30;99.90
780;DHT22;373;49.342;8.146;2023-05-19T04:47:10;9.40;99.90
780;DHT22;373;49.342;8.146;2023-05-19T04:53:34;9.50;99.90
780;DHT22;373;49.342;8.146;2023-05-19T04:56:35;9.80;1.00
780;DHT22;373;49.342;8.146;2023-05-19T04:59:08;9.80;99.90
780;DHT22;373;49.342;8.146;2023-05-19T05:01:36;9.70;99.90
780;DHT22;373;49.342;8.146;2023-05-19T05:04:16;9.70;99.90
780;DHT22;373;49.342;8.146;2023-05-19T05:06:51;9.80;99.90
780;DHT22;373;49.342;8.146;2023-05-19T05:09:24;10.00;99.90
780;DHT22;373;49.342;8.146;2023-05-19T05:12:10;9.90;99.90
780;DHT22;373;49.342;8.146;2023-05-19T05:14:40;10.20;99.90
780;DHT22;373;49.342;8.146;2023-05-19T05:17:10;10.40;1.00
780;DHT22;373;49.342;8.146;2023-05-19T05:19:37;10.30;1.00
780;DHT22;373;49.342;8.146;2023-05-19T05:22:06;10.40;1.00
780;DHT22;373;49.342;8.146;2023-05-19T05:24:36;10.40;1.00
780;DHT22;373;49.342;8.146;2023-05-19T05:27:04;10.70;1.00
780;DHT22;373;49.342;8.146;2023-05-19T05:29:33;10.90;99.90
780;DHT22;373;49.342;8.146;2023-05-19T05:32:04;11.00;1.00
780;DHT22;373;49.342;8.146;2023-05-19T05:34:35;11.00;99.90
780;DHT22;373;49.342;8.146;2023-05-19T05:37:04;11.10;1.00
780;DHT22;373;49.342;8.146;2023-05-19T05:39:32;11.00;1.00
780;DHT22;373;49.342;8.146;2023-05-19T05:42:00;11.20;1.00
780;DHT22;373;49.342;8.146;2023-05-19T05:44:28;11.40;1.00
780;DHT22;373;49.342;8.146;2023-05-19T05:46:56;11.60;1.00
780;DHT22;373;49.342;8.146;2023-05-19T05:49:25;11.60;99.90
780;DHT22;373;49.342;8.146;2023-05-19T05:51:54;11.80;99.90
780;DHT22;373;49.342;8.146;2023-05-19T05:54:22;12.00;99.90
780;DHT22;373;49.342;8.146;2023-05-19T05:56:52;12.20;53.70
780;DHT22;373;49.342;8.146;2023-05-19T05:59:19;12.50;10.90
780;DHT22;373;49.342;8.146;2023-05-19T06:01:46;12.70;1.00
780;DHT22;373;49.342;8.146;2023-05-19T06:04:16;12.60;1.00
780;DHT22;373;49.342;8.146;2023-05-19T06:06:52;12.90;1.00
780;DHT22;373;49.342;8.146;2023-05-19T06:09:25;13.10;1.00
780;DHT22;373;49.342;8.146;2023-05-19T06:12:00;13.40;1.00
780;DHT22;373;49.342;8.146;2023-05-19T06:14:32;13.70;1.00
780;DHT22;373;49.342;8.146;2023-05-19T06:17:22;13.90;99.90
780;DHT22;373;49.342;8.146;2023-05-19T06:20:18;14.30;99.90
780;DHT22;373;49.342;8.146;2023-05-19T06:22:47;14.70;99.90
780;DHT22;373;49.342;8.146;2023-05-19T06:25:16;15.30;99.90
780;DHT22;373;49.342;8.146;2023-05-19T06:28:30;15.80;99.90
780;DHT22;373;49.342;8.146;2023-05-19T06:32:02;16.40;99.90
780;DHT22;373;49.342;8.146;2023-05-19T06:35:11;16.50;99.90
780;DHT22;373;49.342;8.146;2023-05-19T06:39:03;16.70;99.90
780;DHT22;373;49.342;8.146;2023-05-19T06:41:59;16.80;99.90
780;DHT22;373;49.342;8.146;2023-05-19T06:45:26;16.80;99.90
780;DHT22;373;49.342;8.146;2023-05-19T06:49:18;16.90;99.90
780;DHT22;373;49.342;8.146;2023-05-19T06:51:55;17.00;91.60
780;DHT22;373;49.342;8.146;2023-05-19T06:54:24;16.60;87.90
780;DHT22;373;49.342;8.146;2023-05-19T06:56:52;16.60;88.50
780;DHT22;373;49.342;8.146;2023-05-19T06:59:19;16.50;87.00
780;DHT22;373;49.342;8.146;2023-05-19T07:01:48;16.30;87.40
780;DHT22;373;49.342;8.146;2023-05-19T07:04:16;16.90;86.50
780;DHT22;373;49.342;8.146;2023-05-19T07:06:43;17.20;85.40
780;DHT22;373;49.342;8.146;2023-05-19T07:09:10;17.10;79.20
780;DHT22;373;49.342;8.146;2023-05-19T07:11:39;17.30;76.30
780;DHT22;373;49.342;8.146;2023-05-19T07:14:07;17.50;73.30
780;DHT22;373;49.342;8.146;2023-05-19T07:16:34;17.50;68.50
780;DHT22;373;49.342;8.146;2023-05-19T07:19:02;17.60;67.70
780;DHT22;373;49.342;8.146;2023-05-19T07:21:29;17.40;61.50
780;DHT22;373;49.342;8.146;2023-05-19T07:23:56;17.70;62.90
780;DHT22;373;49.342;8.146;2023-05-19T07:26:23;17.90;62.30
780;DHT22;373;49.342;8.146;2023-05-19T07:28:52;17.70;60.50
780;DHT22;373;49.342;8.146;2023-05-19T07:31:19;17.50;61.40
780;DHT22;373;49.342;8.146;2023-05-19T07:33:46;17.60;62.20
780;DHT22;373;49.342;8.146;2023-05-19T07:36:13;17.70;69.50
780;DHT22;373;49.342;8.146;2023-05-19T07:38:40;17.70;60.20
780;DHT22;373;49.342;8.146;2023-05-19T07:41:07;17.60;57.10
780;DHT22;373;49.342;8.146;2023-05-19T07:43:34;17.30;59.30
780;DHT22;373;49.342;8.146;2023-05-19T07:46:03;17.00;56.60
780;DHT22;373;49.342;8.146;2023-05-19T07:48:30;17.20;59.00
780;DHT22;373;49.342;8.146;2023-05-19T07:50:57;17.60;63.60
780;DHT22;373;49.342;8.146;2023-05-19T07:53:24;18.10;59.90
780;DHT22;373;49.342;8.146;2023-05-19T07:55:53;17.90;54.10
780;DHT22;373;49.342;8.146;2023-05-19T07:58:21;17.90;55.50
780;DHT22;373;49.342;8.146;2023-05-19T08:00:47;18.30;57.40
780;DHT22;373;49.342;8.146;2023-05-19T08:03:16;18.40;53.10
780;DHT22;373;49.342;8.146;2023-05-19T08:09:19;19.00;52.20
780;DHT22;373;49.342;8.146;2023-05-19T08:11:53;19.10;49.60
780;DHT22;373;49.342;8.146;2023-05-19T08:18:11;18.20;45.60
780;DHT22;373;49.342;8.146;2023-05-19T08:24:36;18.60;48.00
780;DHT22;373;49.342;8.146;2023-05-19T08:27:49;18.60;48.10
780;DHT22;373;49.342;8.146;2023-05-19T08:31:12;18.90;46.30
780;DHT22;373;49.342;8.146;2023-05-19T09:02:21;19.10;35.30
780;DHT22;373;49.342;8.146;2023-05-19T09:04:48;18.30;38.40
780;DHT22;373;49.342;8.146;2023-05-19T09:07:15;18.90;44.60
780;DHT22;373;49.342;8.146;2023-05-19T09:09:43;19.20;44.90
780;DHT22;373;49.342;8.146;2023-05-19T09:12:10;19.60;46.80
780;DHT22;373;49.342;8.146;2023-05-19T09:14:39;18.70;39.90
780;DHT22;373;49.342;8.146;2023-05-19T09:17:06;18.50;42.00
780;DHT22;373;49.342;8.146;2023-05-19T09:19:34;19.00;46.60
780;DHT22;373;49.342;8.146;2023-05-19T09:22:01;19.50;43.80
780;DHT22;373;49.342;8.146;2023-05-19T09:24:30;19.90;43.50
780;DHT22;373;49.342;8.146;2023-05-19T09:26:57;20.00;40.10
780;DHT22;373;49.342;8.146;2023-05-19T09:29:24;19.70;38.00
780;DHT22;373;49.342;8.146;2023-05-19T09:31:54;19.50;38.40
780;DHT22;373;49.342;8.146;2023-05-19T09:34:25;19.60;37.90
780;DHT22;373;49.342;8.146;2023-05-19T09:36:53;19.90;39.30
780;DHT22;373;49.342;8.146;2023-05-19T09:39:23;20.00;34.80
780;DHT22;373;49.342;8.146;2023-05-19T09:41:50;20.00;34.90
780;DHT22;373;49.342;8.146;2023-05-19T09:44:21;20.10;35.80
780;DHT22;373;49.342;8.146;2023-05-19T09:46:49;20.00;35.30
780;DHT22;373;49.342;8.146;2023-05-19T09:49:20;20.10;35.20
780;DHT22;373;49.342;8.146;2023-05-19T09:51:54;20.00;29.80
780;DHT22;373;49.342;8.146;2023-05-19T09:54:22;19.90;29.40
780;DHT22;373;49.342;8.146;2023-05-19T09:56:56;20.40;30.00
780;DHT22;373;49.342;8.146;2023-05-19T09:59:24;20.50;40.50
780;DHT22;373;49.342;8.146;2023-05-19T10:01:53;20.90;29.00
780;DHT22;373;49.342;8.146;2023-05-19T10:04:22;20.00;24.70
780;DHT22;373;49.342;8.146;2023-05-19T10:06:49;19.80;25.10
780;DHT22;373;49.342;8.146;2023-05-19T10:09:23;20.40;27.30
780;DHT22;373;49.342;8.146;2023-05-19T10:11:51;21.00;27.20
780;DHT22;373;49.342;8.146;2023-05-19T10:14:21;20.60;23.40
780;DHT22;373;49.342;8.146;2023-05-19T10:16:50;21.00;24.90
780;DHT22;373;49.342;8.146;2023-05-19T10:19:19;21.30;23.50
780;DHT22;373;49.342;8.146;2023-05-19T10:21:47;21.40;20.30
780;DHT22;373;49.342;8.146;2023-05-19T10:24:14;21.40;20.40
780;DHT22;373;49.342;8.146;2023-05-19T10:26:49;21.80;19.30
780;DHT22;373;49.342;8.146;2023-05-19T10:29:22;22.40;19.90
780;DHT22;373;49.342;8.146;2023-05-19T10:31:52;22.50;15.60
780;DHT22;373;49.342;8.146;2023-05-19T10:37:39;21.10;13.10
780;DHT22;373;49.342;8.146;2023-05-19T10:40:11;21.90;15.10
780;DHT22;373;49.342;8.146;2023-05-19T10:42:48;21.90;11.50
780;DHT22;373;49.342;8.146;2023-05-19T10:45:19;21.70;9.30
780;DHT22;373;49.342;8.146;2023-05-19T10:47:49;21.30;16.20
780;DHT22;373;49.342;8.146;2023-05-19T10:50:16;21.00;6.80
780;DHT22;373;49.342;8.146;2023-05-19T10:52:43;20.40;5.00
780;DHT22;373;49.342;8.146;2023-05-19T10:55:43;20.10;5.60
780;DHT22;373;49.342;8.146;2023-05-19T10:58:12;19.80;4.10
780;DHT22;373;49.342;8.146;2023-05-19T11:00:39;20.10;3.80
780;DHT22;373;49.342;8.146;2023-05-19T11:03:13;20.50;5.20
780;DHT22;373;49.342;8.146;2023-05-19T11:05:41;20.50;4.20
780;DHT22;373;49.342;8.146;2023-05-19T11:08:10;20.40;3.70
780;DHT22;373;49.342;8.146;2023-05-19T11:10:38;20.40;2.70
780;DHT22;373;49.342;8.146;2023-05-19T11:13:05;20.50;2.00
780;DHT22;373;49.342;8.146;2023-05-19T11:15:35;20.30;1.00
780;DHT22;373;49.342;8.146;2023-05-19T11:18:03;20.40;1.00
780;DHT22;373;49.342;8.146;2023-05-19T11:20:31;20.80;1.90
780;DHT22;373;49.342;8.146;2023-05-19T11:23:06;21.60;3.70
780;DHT22;373;49.342;8.146;2023-05-19T11:25:43;21.90;3.00
780;DHT22;373;49.342;8.146;2023-05-19T11:28:11;21.90;4.40
780;DHT22;373;49.342;8.146;2023-05-19T11:30:40;21.20;2.80
780;DHT22;373;49.342;8.146;2023-05-19T11:33:09;21.00;2.10
780;DHT22;373;49.342;8.146;2023-05-19T11:35:36;20.50;1.00
780;DHT22;373;49.342;8.146;2023-05-19T11:38:05;20.50;1.00
780;DHT22;373;49.342;8.146;2023-05-19T11:40:32;20.00;1.00
780;DHT22;373;49.342;8.146;2023-05-19T11:42:59;20.40;1.90
780;DHT22;373;49.342;8.146;2023-05-19T11:45:28;21.20;3.00
780;DHT22;373;49.342;8.146;2023-05-19T11:47:58;20.90;1.00
780;DHT22;373;49.342;8.146;2023-05-19T11:50:25;20.50;1.00
780;DHT22;373;49.342;8.146;2023-05-19T11:52:54;20.40;1.00
780;DHT22;373;49.342;8.146;2023-05-19T11:55:22;21.30;2.50
780;DHT22;373;49.342;8.146;2023-05-19T11:57:55;21.40;1.00
780;DHT22;373;49.342;8.146;2023-05-19T12:00:23;21.50;1.30
780;DHT22;373;49.342;8.146;2023-05-19T12:02:51;21.20;1.00
780;DHT22;373;49.342;8.146;2023-05-19T12:05:21;21.50;1.70
780;DHT22;373;49.342;8.146;2023-05-19T12:07:48;21.60;1.00
780;DHT22;373;49.342;8.146;2023-05-19T12:10:16;21.00;1.00
780;DHT22;373;49.342;8.146;2023-05-19T12:12:45;20.20;1.00
780;DHT22;373;49.342;8.146;2023-05-19T12:15:14;20.10;1.00
780;DHT22;373;49.342;8.146;2023-05-19T12:17:41;20.60;1.00
780;DHT22;373;49.342;8.146;2023-05-19T12:20:11;20.70;1.00
780;DHT22;373;49.342;8.146;2023-05-19T12:22:40;20.90;1.00
780;DHT22;373;49.342;8.146;2023-05-19T12:25:08;21.60;1.50
780;DHT22;373;49.342;8.146;2023-05-19T12:27:36;21.30;1.00
780;DHT22;373;49.342;8.146;2023-05-19T12:30:04;21.70;1.00
780;DHT22;373;49.342;8.146;2023-05-19T12:32:33;21.60;1.00
780;DHT22;373;49.342;8.146;2023-05-19T12:35:02;21.00;1.00
780;DHT22;373;49.342;8.146;2023-05-19T12:37:30;21.00;1.00
780;DHT22;373;49.342;8.146;2023-05-19T12:40:01;20.50;1.00
780;DHT22;373;49.342;8.146;2023-05-19T12:42:29;20.40;1.00
780;DHT22;373;49.342;8.146;2023-05-19T12:44:57;20.50;1.00
780;DHT22;373;49.342;8.146;2023-05-19T12:47:29;20.40;1.00
780;DHT22;373;49.342;8.146;2023-05-19T12:50:01;20.00;1.00
780;DHT22;373;49.342;8.146;2023-05-19T12:52:32;20.00;1.00
780;DHT22;373;49.342;8.146;2023-05-19T12:55:03;20.00;1.00
780;DHT22;373;49.342;8.146;2023-05-19T12:57:33;20.00;1.00
780;DHT22;373;49.342;8.146;2023-05-19T13:00:02;20.10;1.00
780;DHT22;373;49.342;8.146;2023-05-19T13:02:33;20.50;1.90
780;DHT22;373;49.342;8.146;2023-05-19T13:05:00;20.70;1.00
780;DHT22;373;49.342;8.146;2023-05-19T13:07:27;21.00;1.60
780;DHT22;373;49.342;8.146;2023-05-19T13:09:54;21.00;1.20
780;DHT22;373;49.342;8.146;2023-05-19T13:12:22;20.60;1.00
780;DHT22;373;49.342;8.146;2023-05-19T13:14:50;20.40;1.00
780;DHT22;373;49.342;8.146;2023-05-19T13:17:17;20.40;1.00
780;DHT22;373;49.342;8.146;2023-05-19T13:19:45;20.20;1.00
780;DHT22;373;49.342;8.146;2023-05-19T13:22:12;20.20;1.00
780;DHT22;373;49.342;8.146;2023-05-19T13:24:39;20.30;1.00
780;DHT22;373;49.342;8.146;2023-05-19T13:27:06;20.50;1.00
780;DHT22;373;49.342;8.146;2023-05-19T13:29:34;20.30;1.00
780;DHT22;373;49.342;8.146;2023-05-19T13:32:02;20.40;1.00
780;DHT22;373;49.342;8.146;2023-05-19T13:34:28;20.20;1.00
780;DHT22;373;49.342;8.146;2023-05-19T13:36:55;20.20;1.00
780;DHT22;373;49.342;8.146;2023-05-19T13:39:22;20.40;1.00
780;DHT22;373;49.342;8.146;2023-05-19T13:41:49;20.60;1.00
780;DHT22;373;49.342;8.146;2023-05-19T13:44:16;20.70;1.00
780;DHT22;373;49.342;8.146;2023-05-19T13:46:45;20.40;1.00
780;DHT22;373;49.342;8.146;2023-05-19T13:49:12;19.90;1.00
780;DHT22;373;49.342;8.146;2023-05-19T13:51:41;19.90;1.00
780;DHT22;373;49.342;8.146;2023-05-19T13:54:08;19.90;1.00
780;DHT22;373;49.342;8.146;2023-05-19T13:56:36;19.50;1.00
780;DHT22;373;49.342;8.146;2023-05-19T13:59:03;19.60;1.00
780;DHT22;373;49.342;8.146;2023-05-19T14:01:30;19.60;1.00
780;DHT22;373;49.342;8.146;2023-05-19T14:03:58;19.50;1.00
780;DHT22;373;49.342;8.146;2023-05-19T14:06:25;19.40;1.00
780;DHT22;373;49.342;8.146;2023-05-19T14:08:53;19.40;1.00
780;DHT22;373;49.342;8.146;2023-05-19T14:11:20;19.60;1.00
780;DHT22;373;49.342;8.146;2023-05-19T14:13:47;19.70;1.00
780;DHT22;373;49.342;8.146;2023-05-19T14:16:15;19.50;1.00
780;DHT22;373;49.342;8.146;2023-05-19T14:18:42;19.20;1.00
780;DHT22;373;49.342;8.146;2023-05-19T14:21:11;19.10;1.00
780;DHT22;373;49.342;8.146;2023-05-19T14:23:38;19.10;1.00
780;DHT22;373;49.342;8.146;2023-05-19T14:26:05;19.20;1.50
780;DHT22;373;49.342;8.146;2023-05-19T14:28:32;19.00;1.10
780;DHT22;373;49.342;8.146;2023-05-19T14:30:59;19.00;1.70
780;DHT22;373;49.342;8.146;2023-05-19T14:33:26;18.80;4.50
780;DHT22;373;49.342;8.146;2023-05-19T14:35:53;18.70;7.10
780;DHT22;373;49.342;8.146;2023-05-19T14:38:27;18.70;9.50
780;DHT22;373;49.342;8.146;2023-05-19T14:40:54;18.60;11.20
780;DHT22;373;49.342;8.146;2023-05-19T14:43:21;18.80;14.30
780;DHT22;373;49.342;8.146;2023-05-19T14:45:48;18.60;14.50
780;DHT22;373;49.342;8.146;2023-05-19T14:48:16;18.50;14.90
780;DHT22;373;49.342;8.146;2023-05-19T14:50:43;18.40;16.10
780;DHT22;373;49.342;8.146;2023-05-19T14:53:10;18.50;17.00
780;DHT22;373;49.342;8.146;2023-05-19T14:55:38;18.50;18.60
780;DHT22;373;49.342;8.146;2023-05-19T14:58:06;18.50;20.20
780;DHT22;373;49.342;8.146;2023-05-19T15:00:33;18.50;22.90
780;DHT22;373;49.342;8.146;2023-05-19T15:03:00;18.50;31.20
780;DHT22;373;49.342;8.146;2023-05-19T15:05:27;18.50;20.40
780;DHT22;373;49.342;8.146;2023-05-19T15:07:54;18.40;19.20
780;DHT22;373;49.342;8.146;2023-05-19T15:10:22;18.60;19.80
780;DHT22;373;49.342;8.146;2023-05-19T15:12:51;18.50;19.00
780;DHT22;373;49.342;8.146;2023-05-19T15:15:18;18.60;18.80
780;DHT22;373;49.342;8.146;2023-05-19T15:17:45;18.60;27.10
780;DHT22;373;49.342;8.146;2023-05-19T15:20:12;18.70;20.00
780;DHT22;373;49.342;8.146;2023-05-19T15:22:39;18.70;18.90
780;DHT22;373;49.342;8.146;2023-05-19T15:25:08;18.80;18.30
780;DHT22;373;49.342;8.146;2023-05-19T15:27:35;19.00;18.80
780;DHT22;373;49.342;8.146;2023-05-19T15:30:04;18.80;16.80
780;DHT22;373;49.342;8.146;2023-05-19T15:32:32;19.00;18.30
780;DHT22;373;49.342;8.146;2023-05-19T15:35:01;19.20;19.10
780;DHT22;373;49.342;8.146;2023-05-19T15:37:28;19.30;18.30
780;DHT22;373;49.342;8.146;2023-05-19T15:39:54;19.30;16.50
780;DHT22;373;49.342;8.146;2023-05-19T15:42:22;19.20;14.70
780;DHT22;373;49.342;8.146;2023-05-19T15:44:50;19.10;14.30
780;DHT22;373;49.342;8.146;2023-05-19T15:47:19;18.90;22.40
780;DHT22;373;49.342;8.146;2023-05-19T15:49:46;18.80;14.70
780;DHT22;373;49.342;8.146;2023-05-19T15:52:13;18.90;24.20
780;DHT22;373;49.342;8.146;2023-05-19T15:54:40;18.80;15.50
780;DHT22;373;49.342;8.146;2023-05-19T15:57:07;18.80;15.60
780;DHT22;373;49.342;8.146;2023-05-19T15:59:34;18.70;15.80
780;DHT22;373;49.342;8.146;2023-05-19T16:02:01;18.80;16.10
780;DHT22;373;49.342;8.146;2023-05-19T16:04:29;18.70;17.60
780;DHT22;373;49.342;8.146;2023-05-19T16:06:56;19.00;17.90
780;DHT22;373;49.342;8.146;2023-05-19T16:09:23;19.00;18.30
780;DHT22;373;49.342;8.146;2023-05-19T16:11:50;19.10;17.60
780;DHT22;373;49.342;8.146;2023-05-19T16:14:17;19.10;17.70
780;DHT22;373;49.342;8.146;2023-05-19T16:16:44;19.20;16.90
780;DHT22;373;49.342;8.146;2023-05-19T16:19:12;19.20;16.70
780;DHT22;373;49.342;8.146;2023-05-19T16:21:40;19.30;18.30
780;DHT22;373;49.342;8.146;2023-05-19T16:24:07;19.10;17.60
780;DHT22;373;49.342;8.146;2023-05-19T16:26:34;19.00;18.30
780;DHT22;373;49.342;8.146;2023-05-19T16:29:01;19.00;18.70
780;DHT22;373;49.342;8.146;2023-05-19T16:31:28;19.00;18.90
780;DHT22;373;49.342;8.146;2023-05-19T16:33:55;19.00;18.50
780;DHT22;373;49.342;8.146;2023-05-19T16:36:22;19.10;18.00
780;DHT22;373;49.342;8.146;2023-05-19T16:38:51;19.10;16.80
780;DHT22;373;49.342;8.146;2023-05-19T16:41:18;18.80;16.60
780;DHT22;373;49.342;8.146;2023-05-19T16:43:45;18.60;16.40
780;DHT22;373;49.342;8.146;2023-05-19T16:46:12;18.90;17.90
780;DHT22;373;49.342;8.146;2023-05-19T16:48:39;19.00;19.20
780;DHT22;373;49.342;8.146;2023-05-19T16:51:06;19.30;19.20
780;DHT22;373;49.342;8.146;2023-05-19T16:53:36;19.30;18.50
780;DHT22;373;49.342;8.146;2023-05-19T16:56:06;19.10;17.20
780;DHT22;373;49.342;8.146;2023-05-19T16:58:33;19.20;18.90
780;DHT22;373;49.342;8.146;2023-05-19T17:01:00;19.40;19.20
780;DHT22;373;49.342;8.146;2023-05-19T17:03:27;19.50;20.50
780;DHT22;373;49.342;8.146;2023-05-19T17:05:55;19.60;18.90
780;DHT22;373;49.342;8.146;2023-05-19T17:08:22;19.80;17.90
780;DHT22;373;49.342;8.146;2023-05-19T17:10:49;19.80;18.70
780;DHT22;373;49.342;8.146;2023-05-19T17:13:17;19.60;16.80
780;DHT22;373;49.342;8.146;2023-05-19T17:15:44;19.50;16.20
780;DHT22;373;49.342;8.146;2023-05-19T17:18:12;19.30;17.10
780;DHT22;373;49.342;8.146;2023-05-19T17:20:40;19.30;17.60
780;DHT22;373;49.342;8.146;2023-05-19T17:23:07;19.50;18.80
780;DHT22;373;49.342;8.146;2023-05-19T17:25:34;19.40;18.40
780;DHT22;373;49.342;8.146;2023-05-19T17:28:01;19.60;19.00
780;DHT22;373;49.342;8.146;2023-05-19T17:30:30;19.60;18.50
780;DHT22;373;49.342;8.146;2023-05-19T17:32:57;19.70;19.00
780;DHT22;373;49.342;8.146;2023-05-19T17:35:25;19.60;17.20
780;DHT22;373;49.342;8.146;2023-05-19T17:37:52;19.30;17.60
780;DHT22;373;49.342;8.146;2023-05-19T17:40:19;19.30;17.60
780;DHT22;373;49.342;8.146;2023-05-19T17:42:46;19.30;16.50
780;DHT22;373;49.342;8.146;2023-05-19T17:45:13;19.30;17.20
780;DHT22;373;49.342;8.146;2023-05-19T17:47:41;19.40;18.50
780;DHT22;373;49.342;8.146;2023-05-19T17:50:09;19.30;18.30
780;DHT22;373;49.342;8.146;2023-05-19T17:52:37;19.40;19.90
780;DHT22;373;49.342;8.146;2023-05-19T17:55:06;19.50;18.40
780;DHT22;373;49.342;8.146;2023-05-19T17:57:34;19.30;18.80
780;DHT22;373;49.342;8.146;2023-05-19T18:00:02;19.50;19.70
780;DHT22;373;49.342;8.146;2023-05-19T18:02:30;19.50;19.20
780;DHT22;373;49.342;8.146;2023-05-19T18:04:59;19.30;19.10
780;DHT22;373;49.342;8.146;2023-05-19T18:07:28;19.20;19.40